createdAt,value
2018-01-21T11:58:41.978Z,102.10
2018-01-21T12:01:10.251Z,98.10
2018-01-21T12:03:38.586Z,107.87
2018-01-21T12:06:06.187Z,105.13
2018-01-21T12:08:34.456Z,96.37
2018-01-21T12:11:01.969Z,91.17
2018-01-21T12:13:29.491Z,88.23
2018-01-21T12:15:57.802Z,87.87
2018-01-21T12:18:25.305Z,82.20
2018-01-21T12:20:52.842Z,77.90
2018-01-21T12:23:20.354Z,78.37
2018-01-21T12:25:47.869Z,81.93
2018-01-21T12:28:15.399Z,90.20
2018-01-21T12:30:43.675Z,89.53
2018-01-21T12:33:11.969Z,84.90
2018-01-21T12:35:39.485Z,85.50
2018-01-21T12:38:07.003Z,86.30
2018-01-21T12:40:34.524Z,89.07
2018-01-21T12:43:02.035Z,91.37
2018-01-21T12:45:29.554Z,84.70
2018-01-21T12:47:57.091Z,85.47
2018-01-21T12:50:24.602Z,87.63
2018-01-21T12:52:52.116Z,82.10
2018-01-21T12:55:19.657Z,71.87
2018-01-21T12:57:47.164Z,65.80
2018-01-21T13:00:14.671Z,71.13
2018-01-21T13:02:42.200Z,78.00
2018-01-21T13:05:09.701Z,70.80
2018-01-21T13:07:37.214Z,71.27
2018-01-21T13:10:04.749Z,64.30
2018-01-21T13:12:32.249Z,61.87
2018-01-21T13:14:59.760Z,63.30
2018-01-21T13:17:27.297Z,57.13
2018-01-21T13:19:55.569Z,60.13
2018-01-21T13:22:23.887Z,60.17
2018-01-21T13:24:51.398Z,56.67
2018-01-21T13:27:18.911Z,65.43
2018-01-21T13:29:46.450Z,63.07
2018-01-21T13:32:14.715Z,65.37
2018-01-21T13:34:43.027Z,76.00
2018-01-21T13:37:10.537Z,83.30
2018-01-21T13:39:38.063Z,84.17
2018-01-21T13:42:05.587Z,78.77
2018-01-21T13:44:33.857Z,77.63
2018-01-21T13:47:01.365Z,74.57
2018-01-21T13:49:28.913Z,77.73
2018-01-21T13:51:56.433Z,67.33
2018-01-21T13:54:23.943Z,76.30
2018-01-21T13:56:51.479Z,71.90
2018-01-21T13:59:18.980Z,68.80
2018-01-21T14:01:46.473Z,76.40
2018-01-21T14:04:14.001Z,75.47
2018-01-21T14:06:41.508Z,75.70
2018-01-21T14:09:09.004Z,72.07
2018-01-21T14:11:37.321Z,72.47
2018-01-21T14:14:04.820Z,74.40
2018-01-21T14:16:32.320Z,74.23
2018-01-21T14:18:59.859Z,78.40
2018-01-21T14:21:27.366Z,91.83
2018-01-21T14:23:54.871Z,93.23
2018-01-21T14:26:22.388Z,78.97
2018-01-21T14:28:49.930Z,75.53
2018-01-21T14:31:17.416Z,86.10
2018-01-21T14:33:44.940Z,78.13
2018-01-21T14:36:12.448Z,85.30
2018-01-21T14:38:39.950Z,86.07
2018-01-21T14:41:07.496Z,85.67
2018-01-21T14:43:34.999Z,85.30
2018-01-21T14:46:03.260Z,79.83
2018-01-21T14:48:30.797Z,82.33
2018-01-21T14:50:58.299Z,83.77
2018-01-21T14:53:26.564Z,93.93
2018-01-21T14:55:54.105Z,96.97
2018-01-21T14:58:21.652Z,92.47
2018-01-21T15:00:49.205Z,94.00
2018-01-21T15:03:16.742Z,90.60
2018-01-21T15:05:45.085Z,90.87
2018-01-21T15:08:12.585Z,93.03
2018-01-21T15:10:40.886Z,81.40
2018-01-21T15:13:08.411Z,82.93
2018-01-21T15:15:35.930Z,87.63
2018-01-21T15:18:03.466Z,93.30
2018-01-21T15:20:31.002Z,84.07
2018-01-21T15:22:58.517Z,81.63
2018-01-21T15:25:26.057Z,88.77
2018-01-21T15:27:53.569Z,87.23
2018-01-21T15:30:21.081Z,81.17
2018-01-21T15:32:49.392Z,94.30
2018-01-21T15:35:16.901Z,86.50
2018-01-21T15:37:44.412Z,92.17
2018-01-21T15:40:11.970Z,84.57
2018-01-21T15:42:39.475Z,88.53
2018-01-21T15:45:06.987Z,95.97
2018-01-21T15:47:34.518Z,93.53
2018-01-21T15:50:02.029Z,87.20
2018-01-21T15:52:29.544Z,101.03
2018-01-21T15:54:57.112Z,100.87
2018-01-21T15:57:25.384Z,95.17
2018-01-21T15:59:52.939Z,98.00
2018-01-21T16:02:20.479Z,97.30
2018-01-21T16:04:47.987Z,94.93
2018-01-21T16:07:16.293Z,105.23
2018-01-21T16:09:43.825Z,106.83
2018-01-21T16:12:11.328Z,107.50
2018-01-21T16:14:38.830Z,102.03
2018-01-21T16:17:06.371Z,114.50
2018-01-21T16:19:33.877Z,110.60
2018-01-21T16:22:02.174Z,115.20
2018-01-21T16:24:30.481Z,118.20
2018-01-21T16:26:58.022Z,118.67
2018-01-21T16:29:26.298Z,117.73
2018-01-21T16:31:54.610Z,122.37
2018-01-21T16:34:22.376Z,123.90
2018-01-21T16:36:49.672Z,118.17
2018-01-21T16:39:17.204Z,111.40
2018-01-21T16:41:44.718Z,108.97
2018-01-21T16:44:12.226Z,106.13
2018-01-21T16:46:39.801Z,103.97
2018-01-21T16:49:07.336Z,99.73
2018-01-21T16:51:34.845Z,112.50
2018-01-21T16:54:02.385Z,97.40
2018-01-21T16:56:29.902Z,99.97
2018-01-21T16:58:58.181Z,97.23
2018-01-21T17:01:26.504Z,97.23
2018-01-21T17:03:54.014Z,97.80
2018-01-21T17:06:21.524Z,89.47
2018-01-21T17:08:49.097Z,94.80
2018-01-21T17:11:16.607Z,82.40
2018-01-21T17:13:44.113Z,88.17
2018-01-21T17:16:11.967Z,89.23
2018-01-21T17:18:39.489Z,93.67
2018-01-21T17:21:07.033Z,90.23
2018-01-21T17:23:34.628Z,87.83
2018-01-21T17:26:02.150Z,91.10
2018-01-21T17:28:29.677Z,92.47
2018-01-21T17:30:57.992Z,97.53
2018-01-21T17:33:25.497Z,97.13
2018-01-21T17:35:52.999Z,92.60
2018-01-21T17:38:20.533Z,101.10
2018-01-21T17:40:48.816Z,99.77
2018-01-21T17:43:17.104Z,99.83
2018-01-21T17:45:45.395Z,102.37
2018-01-21T17:48:12.925Z,97.47
2018-01-21T17:50:40.472Z,97.03
2018-01-21T17:53:08.007Z,99.47
2018-01-21T17:55:35.534Z,99.17
2018-01-21T17:58:03.890Z,99.63
2018-01-21T18:00:31.463Z,99.17
2018-01-21T18:02:59.041Z,97.93
2018-01-21T18:05:27.376Z,89.97
2018-01-21T18:07:54.929Z,78.77
2018-01-21T18:10:22.448Z,88.60
2018-01-21T18:12:50.778Z,85.60
2018-01-21T18:15:18.325Z,89.10
2018-01-21T18:17:45.846Z,89.90
2018-01-21T18:20:13.378Z,81.13
2018-01-21T18:22:40.924Z,120.93
2018-01-21T18:25:08.453Z,82.13
2018-01-21T18:27:36.799Z,145.57
2018-01-21T18:30:04.322Z,109.73
2018-01-21T18:32:31.865Z,105.83
2018-01-21T18:35:00.186Z,93.83
2018-01-21T18:37:27.714Z,91.90
2018-01-21T18:39:56.006Z,89.80
2018-01-21T18:42:23.555Z,98.63
2018-01-21T18:44:51.846Z,98.57
2018-01-21T18:47:19.355Z,110.73
2018-01-21T18:49:46.902Z,106.87
2018-01-21T18:52:14.445Z,118.60
2018-01-21T18:54:41.974Z,106.60
2018-01-21T18:57:09.519Z,108.33
2018-01-21T18:59:37.054Z,114.37
2018-01-21T19:02:04.563Z,114.13
2018-01-21T19:04:32.872Z,110.73
2018-01-21T19:07:00.396Z,113.47
2018-01-21T19:09:27.938Z,113.50
2018-01-21T19:11:55.484Z,114.20
2018-01-21T19:14:23.011Z,116.83
2018-01-21T19:16:51.327Z,118.43
2018-01-21T19:19:18.868Z,130.10
2018-01-21T19:21:46.407Z,130.50
2018-01-21T19:24:13.934Z,118.93
2018-01-21T19:26:41.497Z,126.50
2018-01-21T19:29:09.018Z,122.17
2018-01-21T19:31:37.309Z,133.97
2018-01-21T19:34:04.883Z,128.10
2018-01-21T19:36:32.443Z,135.07
2018-01-21T19:42:10.265Z,144.10
2018-01-21T19:44:37.822Z,150.00
2018-01-21T19:47:05.360Z,142.40
2018-01-21T19:49:32.912Z,146.43
2018-01-21T19:52:01.212Z,145.70
2018-01-21T19:54:28.729Z,133.97
2018-01-21T19:56:56.261Z,133.37
2018-01-21T19:59:23.792Z,123.43
2018-01-21T20:01:52.124Z,119.30
2018-01-21T20:04:19.752Z,119.47
2018-01-21T20:06:47.386Z,125.33
2018-01-21T20:09:14.933Z,122.53
2018-01-21T20:11:42.485Z,117.97
2018-01-21T20:14:10.055Z,110.83
2018-01-21T20:16:37.591Z,100.63
2018-01-21T20:19:05.116Z,109.87
2018-01-21T20:21:33.440Z,121.40
2018-01-21T20:24:00.954Z,102.60
2018-01-21T20:26:29.237Z,110.20
2018-01-21T20:28:57.588Z,116.30
2018-01-21T20:31:25.109Z,111.53
2018-01-21T20:33:52.621Z,105.73
2018-01-21T20:36:20.181Z,109.80
2018-01-21T20:38:47.709Z,107.13
2018-01-21T20:41:15.234Z,95.33
2018-01-21T20:43:43.528Z,93.57
2018-01-21T20:46:11.033Z,80.17
2018-01-21T20:48:38.570Z,87.43
2018-01-21T20:51:11.968Z,90.33
2018-01-21T20:53:45.179Z,88.37
2018-01-21T20:56:12.734Z,95.17
2018-01-21T20:58:40.323Z,98.10
2018-01-21T21:01:07.874Z,102.23
2018-01-21T21:03:35.446Z,97.57
2018-01-21T21:06:03.080Z,105.13
2018-01-21T21:08:30.664Z,114.63
2018-01-21T21:10:58.252Z,117.00
2018-01-21T21:13:25.791Z,118.57
2018-01-21T21:15:53.347Z,115.30
2018-01-21T21:18:20.882Z,121.07
2018-01-21T21:20:48.403Z,119.70
2018-01-21T21:23:15.928Z,120.07
2018-01-21T21:25:43.457Z,121.93
2018-01-21T21:28:11.753Z,120.60
2018-01-21T21:30:40.081Z,131.00
2018-01-21T21:33:07.616Z,133.33
2018-01-21T21:35:35.145Z,135.33
2018-01-21T21:38:03.468Z,153.17
2018-01-21T21:40:31.008Z,151.43
2018-01-21T21:42:58.565Z,154.10
2018-01-21T21:45:26.126Z,155.37
2018-01-21T21:47:54.416Z,157.83
2018-01-21T21:50:22.715Z,149.83
2018-01-21T21:52:50.224Z,98.70
2018-01-21T21:55:17.755Z,62.27
2018-01-21T21:57:45.311Z,49.93
2018-01-21T22:00:12.853Z,53.83
2018-01-21T22:02:40.384Z,49.90
2018-01-21T22:05:07.923Z,59.30
2018-01-21T22:07:35.469Z,55.20
2018-01-21T22:10:02.971Z,57.53
2018-01-21T22:12:30.533Z,64.20
2018-01-21T22:14:58.064Z,59.97
2018-01-21T22:17:26.353Z,62.67
2018-01-21T22:19:53.889Z,58.03
2018-01-21T22:22:21.419Z,61.17
2018-01-21T22:24:49.692Z,49.90
2018-01-21T22:27:17.245Z,58.27
2018-01-21T22:29:44.770Z,52.90
2018-01-21T22:32:12.384Z,59.50
2018-01-21T22:34:39.960Z,58.77
2018-01-21T22:37:08.257Z,72.57
2018-01-21T22:39:35.774Z,57.00
2018-01-21T22:42:03.335Z,71.23
2018-01-21T22:44:30.874Z,68.27
2018-01-21T22:46:58.401Z,74.77
2018-01-21T22:49:26.720Z,72.50
2018-01-21T22:51:54.245Z,76.87
2018-01-21T22:54:22.545Z,83.07
2018-01-21T22:56:50.091Z,69.93
2018-01-21T22:59:18.399Z,69.57
2018-01-21T23:01:45.938Z,69.90
2018-01-21T23:04:14.250Z,75.37
2018-01-21T23:06:41.768Z,72.50
2018-01-21T23:09:10.067Z,72.60
2018-01-21T23:11:37.617Z,78.20
2018-01-21T23:14:05.927Z,74.73
2018-01-21T23:16:33.457Z,77.57
2018-01-21T23:19:01.854Z,75.37
2018-01-21T23:21:30.146Z,82.10
2018-01-21T23:23:57.691Z,74.20
2018-01-21T23:26:26.005Z,80.97
2018-01-21T23:28:53.528Z,78.37
2018-01-21T23:31:21.842Z,73.97
2018-01-21T23:33:49.381Z,75.07
2018-01-21T23:36:17.661Z,78.23
2018-01-21T23:38:45.962Z,79.20
2018-01-21T23:41:13.532Z,83.27
2018-01-21T23:43:41.811Z,71.20
2018-01-21T23:46:09.392Z,89.97
2018-01-21T23:48:36.908Z,88.27
2018-01-21T23:51:05.330Z,87.87
2018-01-21T23:53:32.894Z,88.80
2018-01-21T23:56:00.415Z,74.90
2018-01-21T23:58:28.707Z,75.20
